Fort Nelson Airport
CYYE : now visible

Airfield :











YOU CAN JOIN US ON...

 
LOGIN :

Register | Disclaimer

   EN    FR    IT 

 









Legend :    VFR   Marginal VFR   IFR   Intensive IFR   Very Intensive IFR
Visi :
Ceiling :
>= 8 km
>= 3000ft
5 to 8 km
1000 to 3000 ft
1500m to 5 km
500 to 1000 ft
800 to 1500m
200 to 500 ft
< 800m
< 200 ft
Symbols :   Thunderstorms  Fog  Heavy snow  Heavy precipitations  Wind > 20 kt






- Airport Elevation : 1253 ft
- IATA code : YYE


CYYE - Fort Nelson

CURRENT METAR :
  • 220546Z 00000KT 3SM IC OVC003 M19/M22 A2950 RMK SC8 VIS SW 1 SLP033

EXPIRED METARs :
  • 220519Z 22002KT 5SM IC OVC004 M19/M22 A2950 RMK SC8 SLP033
  • 220500Z 24003KT 15SM OVC005 M20/M22 A2950 RMK SC8 SLP035
  • 220400Z 00000KT 15SM SCT150 M21/M24 A2951 RMK AC3 SLP038
  • 220300Z 35002KT 15SM FEW230 M22/M24 A2953 RMK CI2 SLP045

TAF AMD TAF CYYE
Valid from the 22 at 05:00 until the 22 at 13:00 UTC


220511Z 2205/2213 VRB03KT P6SM OVC025
TEMPO 2205/2213 2SM -SN OVC005 RMK NXT FCST BY 220700Z



MET'MAP, your aeronautical weather chart ! - Copyright ORBIFLY December 2007 - Disclaimer

ORBIFLY MET'MAP TEAM :

Programming & Development : Alexandra Zaïnal
Concept & original design : Baudouin d'Aumeries
Assistance for programming : Marc-Olivier Méhu
Technical & hardware support : Manuel Goepfert

Contact : metmap@orbifly.com




SOURCES & CREDITS :

   NOAA       Earth
Advisory